<?xml version="1.0" encoding="UTF-8" standalone="no" ?>
<gpx xmlns="http://www.topografix.com/GPX/1/1" xmlns:xsi="http://www.w3.org/2001/XMLSchema-instance" xsi:schemaLocation="http://www.topografix.com/GPX/1/1 http://www.topografix.com/GPX/1/1/gpx.xsd" version="1.1" creator="VisuGPX - https://www.visugpx.com">
  <metadata>
    <name>Plage de Menton</name>
    <desc><![CDATA[Petite ballade aller-retour devant la Promenade du Soleil à Manton.]]></desc>
  </metadata>
  <trk>
    <name><![CDATA[Plage de Menton_1]]></name>
    <trkseg>
      <trkpt lat="43.7737" lon="7.50219">
        <ele>-5</ele>
        <time>2021-06-03T07:55:31Z</time>
      </trkpt>
      <trkpt lat="43.77345" lon="7.50234">
        <ele>-1</ele>
        <time>2021-06-03T07:59:53Z</time>
      </trkpt>
      <trkpt lat="43.77335" lon="7.50236">
        <ele>-1</ele>
        <time>2021-06-03T08:00:03Z</time>
      </trkpt>
      <trkpt lat="43.77326" lon="7.50242">
        <ele>-1</ele>
        <time>2021-06-03T08:00:13Z</time>
      </trkpt>
      <trkpt lat="43.77321" lon="7.50251">
        <time>2021-06-03T08:00:22Z</time>
      </trkpt>
      <trkpt lat="43.77324" lon="7.50263">
        <time>2021-06-03T08:00:31Z</time>
      </trkpt>
      <trkpt lat="43.77328" lon="7.50275">
        <time>2021-06-03T08:00:41Z</time>
      </trkpt>
      <trkpt lat="43.7733" lon="7.50286">
        <time>2021-06-03T08:00:50Z</time>
      </trkpt>
      <trkpt lat="43.77333" lon="7.503">
        <time>2021-06-03T08:01:01Z</time>
      </trkpt>
      <trkpt lat="43.77333" lon="7.50311">
        <ele>7.8</ele>
        <time>2021-06-03T08:01:10Z</time>
      </trkpt>
      <trkpt lat="43.77334" lon="7.50321">
        <ele>7.4</ele>
        <time>2021-06-03T08:01:19Z</time>
      </trkpt>
      <trkpt lat="43.77336" lon="7.50333">
        <ele>7</ele>
        <time>2021-06-03T08:01:29Z</time>
      </trkpt>
      <trkpt lat="43.77336" lon="7.50344">
        <ele>6.6</ele>
        <time>2021-06-03T08:01:39Z</time>
      </trkpt>
      <trkpt lat="43.77337" lon="7.50356">
        <ele>6.2</ele>
        <time>2021-06-03T08:01:49Z</time>
      </trkpt>
      <trkpt lat="43.77338" lon="7.50369">
        <ele>5.7</ele>
        <time>2021-06-03T08:02:00Z</time>
      </trkpt>
      <trkpt lat="43.77338" lon="7.5038">
        <ele>5.3</ele>
        <time>2021-06-03T08:02:10Z</time>
      </trkpt>
      <trkpt lat="43.77339" lon="7.50392">
        <ele>4.9</ele>
        <time>2021-06-03T08:02:20Z</time>
      </trkpt>
      <trkpt lat="43.77342" lon="7.50402">
        <ele>4.5</ele>
        <time>2021-06-03T08:02:30Z</time>
      </trkpt>
      <trkpt lat="43.77346" lon="7.50412">
        <ele>4.2</ele>
        <time>2021-06-03T08:02:40Z</time>
      </trkpt>
      <trkpt lat="43.7735" lon="7.50422">
        <ele>3.9</ele>
        <time>2021-06-03T08:02:50Z</time>
      </trkpt>
      <trkpt lat="43.77354" lon="7.50432">
        <ele>3.8</ele>
        <time>2021-06-03T08:03:00Z</time>
      </trkpt>
      <trkpt lat="43.77358" lon="7.50442">
        <ele>3.7</ele>
        <time>2021-06-03T08:03:10Z</time>
      </trkpt>
      <trkpt lat="43.77362" lon="7.50452">
        <ele>3.6</ele>
        <time>2021-06-03T08:03:20Z</time>
      </trkpt>
      <trkpt lat="43.77365" lon="7.50463">
        <ele>3.4</ele>
        <time>2021-06-03T08:03:30Z</time>
      </trkpt>
      <trkpt lat="43.77368" lon="7.50473">
        <ele>3.3</ele>
        <time>2021-06-03T08:03:40Z</time>
      </trkpt>
      <trkpt lat="43.77367" lon="7.50484">
        <ele>3.2</ele>
        <time>2021-06-03T08:03:50Z</time>
      </trkpt>
      <trkpt lat="43.77366" lon="7.50496">
        <ele>3.1</ele>
        <time>2021-06-03T08:04:00Z</time>
      </trkpt>
      <trkpt lat="43.77367" lon="7.50507">
        <ele>3.1</ele>
        <time>2021-06-03T08:04:10Z</time>
      </trkpt>
      <trkpt lat="43.77369" lon="7.50517">
        <ele>3.2</ele>
        <time>2021-06-03T08:04:20Z</time>
      </trkpt>
      <trkpt lat="43.77367" lon="7.50518">
        <ele>3.2</ele>
        <time>2021-06-03T08:04:29Z</time>
      </trkpt>
      <trkpt lat="43.77365" lon="7.50505">
        <ele>3.1</ele>
        <time>2021-06-03T08:04:40Z</time>
      </trkpt>
      <trkpt lat="43.77363" lon="7.50492">
        <ele>3.1</ele>
        <time>2021-06-03T08:04:51Z</time>
      </trkpt>
      <trkpt lat="43.77361" lon="7.5048">
        <ele>3.2</ele>
        <time>2021-06-03T08:05:01Z</time>
      </trkpt>
      <trkpt lat="43.7736" lon="7.50468">
        <ele>3.4</ele>
        <time>2021-06-03T08:05:11Z</time>
      </trkpt>
      <trkpt lat="43.77359" lon="7.50457">
        <ele>3.5</ele>
        <time>2021-06-03T08:05:20Z</time>
      </trkpt>
      <trkpt lat="43.77357" lon="7.50445">
        <ele>3.7</ele>
        <time>2021-06-03T08:05:31Z</time>
      </trkpt>
      <trkpt lat="43.77357" lon="7.50433">
        <ele>3.8</ele>
        <time>2021-06-03T08:05:41Z</time>
      </trkpt>
      <trkpt lat="43.77357" lon="7.50421">
        <ele>4</ele>
        <time>2021-06-03T08:05:51Z</time>
      </trkpt>
      <trkpt lat="43.77358" lon="7.5041">
        <ele>4.2</ele>
        <time>2021-06-03T08:06:00Z</time>
      </trkpt>
      <trkpt lat="43.77359" lon="7.50398">
        <ele>4.7</ele>
        <time>2021-06-03T08:06:11Z</time>
      </trkpt>
      <trkpt lat="43.77359" lon="7.50387">
        <ele>5.1</ele>
        <time>2021-06-03T08:06:20Z</time>
      </trkpt>
      <trkpt lat="43.77359" lon="7.50376">
        <ele>5.5</ele>
        <time>2021-06-03T08:06:30Z</time>
      </trkpt>
      <trkpt lat="43.77357" lon="7.50365">
        <ele>5.9</ele>
        <time>2021-06-03T08:06:40Z</time>
      </trkpt>
      <trkpt lat="43.77356" lon="7.50353">
        <ele>6.3</ele>
        <time>2021-06-03T08:06:50Z</time>
      </trkpt>
      <trkpt lat="43.77354" lon="7.5035">
        <ele>6.4</ele>
        <time>2021-06-03T08:07:05Z</time>
      </trkpt>
      <trkpt lat="43.7735" lon="7.5034">
        <ele>6.8</ele>
        <time>2021-06-03T08:07:15Z</time>
      </trkpt>
      <trkpt lat="43.77349" lon="7.50328">
        <ele>7.2</ele>
        <time>2021-06-03T08:07:25Z</time>
      </trkpt>
      <trkpt lat="43.77346" lon="7.50317">
        <ele>7.6</ele>
        <time>2021-06-03T08:07:36Z</time>
      </trkpt>
      <trkpt lat="43.77342" lon="7.5031">
        <ele>7.8</ele>
        <time>2021-06-03T08:07:46Z</time>
      </trkpt>
      <trkpt lat="43.77341" lon="7.50306">
        <ele>8</ele>
        <time>2021-06-03T08:07:57Z</time>
      </trkpt>
      <trkpt lat="43.77338" lon="7.50295">
        <ele>8.4</ele>
        <time>2021-06-03T08:08:06Z</time>
      </trkpt>
      <trkpt lat="43.77332" lon="7.50284">
        <time>2021-06-03T08:08:16Z</time>
      </trkpt>
      <trkpt lat="43.77326" lon="7.50277">
        <time>2021-06-03T08:08:28Z</time>
      </trkpt>
      <trkpt lat="43.77326" lon="7.50278">
        <time>2021-06-03T08:08:39Z</time>
      </trkpt>
      <trkpt lat="43.77325" lon="7.5028">
        <time>2021-06-03T08:08:59Z</time>
      </trkpt>
      <trkpt lat="43.77324" lon="7.50281">
        <time>2021-06-03T08:09:30Z</time>
      </trkpt>
      <trkpt lat="43.77323" lon="7.50282">
        <time>2021-06-03T08:09:57Z</time>
      </trkpt>
      <trkpt lat="43.77322" lon="7.50284">
        <time>2021-06-03T08:10:54Z</time>
      </trkpt>
      <trkpt lat="43.77322" lon="7.50287">
        <time>2021-06-03T08:11:07Z</time>
      </trkpt>
      <trkpt lat="43.77323" lon="7.50294">
        <time>2021-06-03T08:11:34Z</time>
      </trkpt>
      <trkpt lat="43.77327" lon="7.50284">
        <time>2021-06-03T08:11:44Z</time>
      </trkpt>
      <trkpt lat="43.7733" lon="7.50271">
        <time>2021-06-03T08:11:53Z</time>
      </trkpt>
      <trkpt lat="43.77331" lon="7.50257">
        <time>2021-06-03T08:12:03Z</time>
      </trkpt>
      <trkpt lat="43.77333" lon="7.50249">
        <ele>10</ele>
        <time>2021-06-03T08:12:26Z</time>
      </trkpt>
      <trkpt lat="43.77334" lon="7.50247">
        <ele>9.9</ele>
        <time>2021-06-03T08:12:49Z</time>
      </trkpt>
      <trkpt lat="43.77327" lon="7.50237">
        <ele>6</ele>
        <time>2021-06-03T08:12:59Z</time>
      </trkpt>
      <trkpt lat="43.77325" lon="7.50224">
        <ele>6</ele>
        <time>2021-06-03T08:13:08Z</time>
      </trkpt>
      <trkpt lat="43.77323" lon="7.50212">
        <ele>6</ele>
        <time>2021-06-03T08:13:17Z</time>
      </trkpt>
      <trkpt lat="43.77322" lon="7.50201">
        <ele>6</ele>
        <time>2021-06-03T08:13:26Z</time>
      </trkpt>
      <trkpt lat="43.77318" lon="7.5019">
        <ele>6</ele>
        <time>2021-06-03T08:13:36Z</time>
      </trkpt>
      <trkpt lat="43.77317" lon="7.50178">
        <ele>6</ele>
        <time>2021-06-03T08:13:45Z</time>
      </trkpt>
      <trkpt lat="43.77315" lon="7.50166">
        <ele>6</ele>
        <time>2021-06-03T08:13:55Z</time>
      </trkpt>
      <trkpt lat="43.77311" lon="7.50157">
        <ele>6.1</ele>
        <time>2021-06-03T08:14:04Z</time>
      </trkpt>
      <trkpt lat="43.77305" lon="7.50148">
        <ele>6.2</ele>
        <time>2021-06-03T08:14:14Z</time>
      </trkpt>
      <trkpt lat="43.77298" lon="7.50141">
        <ele>6.3</ele>
        <time>2021-06-03T08:14:24Z</time>
      </trkpt>
      <trkpt lat="43.77291" lon="7.50135">
        <ele>6.4</ele>
        <time>2021-06-03T08:14:34Z</time>
      </trkpt>
      <trkpt lat="43.77284" lon="7.50127">
        <ele>6.5</ele>
        <time>2021-06-03T08:14:44Z</time>
      </trkpt>
      <trkpt lat="43.77278" lon="7.50119">
        <ele>6.6</ele>
        <time>2021-06-03T08:14:54Z</time>
      </trkpt>
      <trkpt lat="43.77275" lon="7.50108">
        <ele>6.7</ele>
        <time>2021-06-03T08:15:04Z</time>
      </trkpt>
      <trkpt lat="43.77269" lon="7.50099">
        <ele>6.8</ele>
        <time>2021-06-03T08:15:14Z</time>
      </trkpt>
      <trkpt lat="43.77264" lon="7.5009">
        <ele>6.9</ele>
        <time>2021-06-03T08:15:24Z</time>
      </trkpt>
      <trkpt lat="43.77258" lon="7.50081">
        <ele>7.1</ele>
        <time>2021-06-03T08:15:34Z</time>
      </trkpt>
      <trkpt lat="43.77254" lon="7.50072">
        <ele>7.7</ele>
        <time>2021-06-03T08:15:44Z</time>
      </trkpt>
      <trkpt lat="43.77248" lon="7.50064">
        <ele>12</ele>
        <time>2021-06-03T08:15:54Z</time>
      </trkpt>
      <trkpt lat="43.77243" lon="7.50056">
        <ele>12</ele>
        <time>2021-06-03T08:16:04Z</time>
      </trkpt>
      <trkpt lat="43.77239" lon="7.50046">
        <ele>12</ele>
        <time>2021-06-03T08:16:14Z</time>
      </trkpt>
      <trkpt lat="43.77234" lon="7.50037">
        <ele>12</ele>
        <time>2021-06-03T08:16:24Z</time>
      </trkpt>
      <trkpt lat="43.77228" lon="7.50031">
        <ele>12</ele>
        <time>2021-06-03T08:16:34Z</time>
      </trkpt>
      <trkpt lat="43.77222" lon="7.50022">
        <ele>12</ele>
        <time>2021-06-03T08:16:44Z</time>
      </trkpt>
      <trkpt lat="43.77216" lon="7.50014">
        <ele>12</ele>
        <time>2021-06-03T08:16:54Z</time>
      </trkpt>
      <trkpt lat="43.77209" lon="7.50008">
        <ele>12</ele>
        <time>2021-06-03T08:17:04Z</time>
      </trkpt>
      <trkpt lat="43.77202" lon="7.50004">
        <ele>12</ele>
        <time>2021-06-03T08:17:14Z</time>
      </trkpt>
      <trkpt lat="43.77194" lon="7.50004">
        <ele>12</ele>
        <time>2021-06-03T08:17:24Z</time>
      </trkpt>
      <trkpt lat="43.77188" lon="7.49999">
        <ele>11.9</ele>
        <time>2021-06-03T08:17:34Z</time>
      </trkpt>
      <trkpt lat="43.77182" lon="7.49991">
        <ele>11.2</ele>
        <time>2021-06-03T08:17:44Z</time>
      </trkpt>
      <trkpt lat="43.77177" lon="7.49983">
        <ele>10.5</ele>
        <time>2021-06-03T08:17:54Z</time>
      </trkpt>
      <trkpt lat="43.77172" lon="7.49974">
        <ele>9.8</ele>
        <time>2021-06-03T08:18:04Z</time>
      </trkpt>
      <trkpt lat="43.77166" lon="7.49967">
        <time>2021-06-03T08:18:14Z</time>
      </trkpt>
      <trkpt lat="43.7716" lon="7.49961">
        <time>2021-06-03T08:18:24Z</time>
      </trkpt>
      <trkpt lat="43.77155" lon="7.49956">
        <time>2021-06-03T08:18:33Z</time>
      </trkpt>
      <trkpt lat="43.77148" lon="7.49948">
        <time>2021-06-03T08:18:43Z</time>
      </trkpt>
      <trkpt lat="43.77143" lon="7.49938">
        <time>2021-06-03T08:18:53Z</time>
      </trkpt>
      <trkpt lat="43.7714" lon="7.49928">
        <time>2021-06-03T08:19:03Z</time>
      </trkpt>
      <trkpt lat="43.77136" lon="7.49919">
        <time>2021-06-03T08:19:13Z</time>
      </trkpt>
      <trkpt lat="43.77132" lon="7.49908">
        <ele>4</ele>
        <time>2021-06-03T08:19:23Z</time>
      </trkpt>
      <trkpt lat="43.77131" lon="7.49898">
        <ele>4</ele>
        <time>2021-06-03T08:19:32Z</time>
      </trkpt>
      <trkpt lat="43.77128" lon="7.49887">
        <ele>4</ele>
        <time>2021-06-03T08:19:41Z</time>
      </trkpt>
      <trkpt lat="43.77127" lon="7.49877">
        <ele>4</ele>
        <time>2021-06-03T08:19:50Z</time>
      </trkpt>
      <trkpt lat="43.77125" lon="7.49867">
        <ele>4</ele>
        <time>2021-06-03T08:19:59Z</time>
      </trkpt>
      <trkpt lat="43.77122" lon="7.49857">
        <ele>4</ele>
        <time>2021-06-03T08:20:09Z</time>
      </trkpt>
      <trkpt lat="43.77119" lon="7.49847">
        <ele>4</ele>
        <time>2021-06-03T08:20:19Z</time>
      </trkpt>
      <trkpt lat="43.77116" lon="7.49836">
        <ele>4</ele>
        <time>2021-06-03T08:20:29Z</time>
      </trkpt>
      <trkpt lat="43.77112" lon="7.49826">
        <ele>4.2</ele>
        <time>2021-06-03T08:20:39Z</time>
      </trkpt>
      <trkpt lat="43.7711" lon="7.49816">
        <ele>4.4</ele>
        <time>2021-06-03T08:20:49Z</time>
      </trkpt>
      <trkpt lat="43.77105" lon="7.49805">
        <ele>4.7</ele>
        <time>2021-06-03T08:20:59Z</time>
      </trkpt>
      <trkpt lat="43.77102" lon="7.49795">
        <ele>4.9</ele>
        <time>2021-06-03T08:21:09Z</time>
      </trkpt>
      <trkpt lat="43.77097" lon="7.49787">
        <ele>5.1</ele>
        <time>2021-06-03T08:21:19Z</time>
      </trkpt>
      <trkpt lat="43.77094" lon="7.49777">
        <ele>5.4</ele>
        <time>2021-06-03T08:21:29Z</time>
      </trkpt>
      <trkpt lat="43.77089" lon="7.49767">
        <ele>5.6</ele>
        <time>2021-06-03T08:21:39Z</time>
      </trkpt>
      <trkpt lat="43.77085" lon="7.49757">
        <ele>5.8</ele>
        <time>2021-06-03T08:21:49Z</time>
      </trkpt>
      <trkpt lat="43.77083" lon="7.49747">
        <ele>4</ele>
        <time>2021-06-03T08:21:59Z</time>
      </trkpt>
      <trkpt lat="43.77081" lon="7.49737">
        <ele>4</ele>
        <time>2021-06-03T08:22:08Z</time>
      </trkpt>
      <trkpt lat="43.7708" lon="7.49725">
        <ele>4</ele>
        <time>2021-06-03T08:22:18Z</time>
      </trkpt>
      <trkpt lat="43.77079" lon="7.49714">
        <ele>4</ele>
        <time>2021-06-03T08:22:28Z</time>
      </trkpt>
      <trkpt lat="43.7708" lon="7.49708">
        <ele>4</ele>
        <time>2021-06-03T08:22:42Z</time>
      </trkpt>
      <trkpt lat="43.77079" lon="7.49718">
        <ele>4</ele>
        <time>2021-06-03T08:22:52Z</time>
      </trkpt>
      <trkpt lat="43.77079" lon="7.49729">
        <ele>4</ele>
        <time>2021-06-03T08:23:02Z</time>
      </trkpt>
      <trkpt lat="43.77076" lon="7.4974">
        <ele>4</ele>
        <time>2021-06-03T08:23:13Z</time>
      </trkpt>
      <trkpt lat="43.77075" lon="7.4975">
        <ele>4</ele>
        <time>2021-06-03T08:23:23Z</time>
      </trkpt>
      <trkpt lat="43.77076" lon="7.49758">
        <time>2021-06-03T08:23:33Z</time>
      </trkpt>
      <trkpt lat="43.77079" lon="7.49768">
        <time>2021-06-03T08:23:43Z</time>
      </trkpt>
      <trkpt lat="43.77081" lon="7.49778">
        <time>2021-06-03T08:23:53Z</time>
      </trkpt>
      <trkpt lat="43.77085" lon="7.49787">
        <ele>5.1</ele>
        <time>2021-06-03T08:24:03Z</time>
      </trkpt>
      <trkpt lat="43.77089" lon="7.49796">
        <ele>4.9</ele>
        <time>2021-06-03T08:24:13Z</time>
      </trkpt>
      <trkpt lat="43.77092" lon="7.49806">
        <ele>4.7</ele>
        <time>2021-06-03T08:24:23Z</time>
      </trkpt>
      <trkpt lat="43.77094" lon="7.49816">
        <ele>4.4</ele>
        <time>2021-06-03T08:24:33Z</time>
      </trkpt>
      <trkpt lat="43.77097" lon="7.49826">
        <ele>4.2</ele>
        <time>2021-06-03T08:24:43Z</time>
      </trkpt>
      <trkpt lat="43.77101" lon="7.49835">
        <ele>4</ele>
        <time>2021-06-03T08:24:53Z</time>
      </trkpt>
      <trkpt lat="43.77104" lon="7.49844">
        <ele>4</ele>
        <time>2021-06-03T08:25:03Z</time>
      </trkpt>
      <trkpt lat="43.77109" lon="7.49854">
        <ele>4</ele>
        <time>2021-06-03T08:25:13Z</time>
      </trkpt>
      <trkpt lat="43.77112" lon="7.49864">
        <ele>4</ele>
        <time>2021-06-03T08:25:23Z</time>
      </trkpt>
      <trkpt lat="43.77116" lon="7.49873">
        <ele>4</ele>
        <time>2021-06-03T08:25:33Z</time>
      </trkpt>
      <trkpt lat="43.7712" lon="7.49883">
        <ele>4</ele>
        <time>2021-06-03T08:25:43Z</time>
      </trkpt>
      <trkpt lat="43.77124" lon="7.49891">
        <ele>4</ele>
        <time>2021-06-03T08:25:53Z</time>
      </trkpt>
      <trkpt lat="43.77129" lon="7.499">
        <ele>4</ele>
        <time>2021-06-03T08:26:03Z</time>
      </trkpt>
      <trkpt lat="43.77133" lon="7.49909">
        <ele>4</ele>
        <time>2021-06-03T08:26:13Z</time>
      </trkpt>
      <trkpt lat="43.77138" lon="7.49917">
        <ele>4</ele>
        <time>2021-06-03T08:26:23Z</time>
      </trkpt>
      <trkpt lat="43.77142" lon="7.49925">
        <time>2021-06-03T08:26:33Z</time>
      </trkpt>
      <trkpt lat="43.77145" lon="7.49934">
        <time>2021-06-03T08:26:43Z</time>
      </trkpt>
      <trkpt lat="43.77148" lon="7.49941">
        <time>2021-06-03T08:26:52Z</time>
      </trkpt>
      <trkpt lat="43.77151" lon="7.49951">
        <time>2021-06-03T08:27:02Z</time>
      </trkpt>
      <trkpt lat="43.77154" lon="7.49959">
        <time>2021-06-03T08:27:12Z</time>
      </trkpt>
      <trkpt lat="43.77159" lon="7.49967">
        <time>2021-06-03T08:27:22Z</time>
      </trkpt>
      <trkpt lat="43.77163" lon="7.49975">
        <time>2021-06-03T08:27:32Z</time>
      </trkpt>
      <trkpt lat="43.77167" lon="7.49982">
        <ele>10.5</ele>
        <time>2021-06-03T08:27:41Z</time>
      </trkpt>
      <trkpt lat="43.77172" lon="7.4999">
        <ele>11.1</ele>
        <time>2021-06-03T08:27:50Z</time>
      </trkpt>
      <trkpt lat="43.77176" lon="7.49997">
        <ele>11.7</ele>
        <time>2021-06-03T08:27:59Z</time>
      </trkpt>
      <trkpt lat="43.7718" lon="7.50006">
        <ele>12</ele>
        <time>2021-06-03T08:28:09Z</time>
      </trkpt>
      <trkpt lat="43.77185" lon="7.50013">
        <ele>12</ele>
        <time>2021-06-03T08:28:19Z</time>
      </trkpt>
      <trkpt lat="43.77189" lon="7.50021">
        <ele>12</ele>
        <time>2021-06-03T08:28:28Z</time>
      </trkpt>
      <trkpt lat="43.77191" lon="7.5003">
        <ele>12</ele>
        <time>2021-06-03T08:28:37Z</time>
      </trkpt>
      <trkpt lat="43.77195" lon="7.50039">
        <ele>12</ele>
        <time>2021-06-03T08:28:47Z</time>
      </trkpt>
      <trkpt lat="43.772" lon="7.50045">
        <ele>12</ele>
        <time>2021-06-03T08:28:56Z</time>
      </trkpt>
      <trkpt lat="43.77207" lon="7.50052">
        <ele>12</ele>
        <time>2021-06-03T08:29:06Z</time>
      </trkpt>
      <trkpt lat="43.77214" lon="7.5005">
        <ele>12</ele>
        <time>2021-06-03T08:29:16Z</time>
      </trkpt>
      <trkpt lat="43.7722" lon="7.50046">
        <ele>12</ele>
        <time>2021-06-03T08:29:25Z</time>
      </trkpt>
      <trkpt lat="43.77228" lon="7.50046">
        <ele>12</ele>
        <time>2021-06-03T08:29:35Z</time>
      </trkpt>
      <trkpt lat="43.77235" lon="7.50053">
        <ele>12</ele>
        <time>2021-06-03T08:29:45Z</time>
      </trkpt>
      <trkpt lat="43.77239" lon="7.5006">
        <ele>12</ele>
        <time>2021-06-03T08:29:55Z</time>
      </trkpt>
      <trkpt lat="43.77244" lon="7.50067">
        <ele>12</ele>
        <time>2021-06-03T08:30:04Z</time>
      </trkpt>
      <trkpt lat="43.77249" lon="7.50074">
        <ele>12</ele>
        <time>2021-06-03T08:30:13Z</time>
      </trkpt>
      <trkpt lat="43.77254" lon="7.5008">
        <ele>7.2</ele>
        <time>2021-06-03T08:30:22Z</time>
      </trkpt>
      <trkpt lat="43.77258" lon="7.50089">
        <ele>6.9</ele>
        <time>2021-06-03T08:30:32Z</time>
      </trkpt>
      <trkpt lat="43.77262" lon="7.50097">
        <ele>6.8</ele>
        <time>2021-06-03T08:30:42Z</time>
      </trkpt>
      <trkpt lat="43.77267" lon="7.50102">
        <ele>6.8</ele>
        <time>2021-06-03T08:30:51Z</time>
      </trkpt>
      <trkpt lat="43.77272" lon="7.50108">
        <ele>6.7</ele>
        <time>2021-06-03T08:31:00Z</time>
      </trkpt>
      <trkpt lat="43.77278" lon="7.50115">
        <ele>6.6</ele>
        <time>2021-06-03T08:31:10Z</time>
      </trkpt>
      <trkpt lat="43.77282" lon="7.50124">
        <ele>6.5</ele>
        <time>2021-06-03T08:31:20Z</time>
      </trkpt>
      <trkpt lat="43.77284" lon="7.50134">
        <ele>6.4</ele>
        <time>2021-06-03T08:31:30Z</time>
      </trkpt>
      <trkpt lat="43.77287" lon="7.50143">
        <ele>6.3</ele>
        <time>2021-06-03T08:31:40Z</time>
      </trkpt>
      <trkpt lat="43.7729" lon="7.50152">
        <ele>6.2</ele>
        <time>2021-06-03T08:31:50Z</time>
      </trkpt>
      <trkpt lat="43.77294" lon="7.50161">
        <ele>6.1</ele>
        <time>2021-06-03T08:32:01Z</time>
      </trkpt>
      <trkpt lat="43.77295" lon="7.50165">
        <ele>6</ele>
        <time>2021-06-03T08:32:11Z</time>
      </trkpt>
      <trkpt lat="43.77297" lon="7.50176">
        <ele>6</ele>
        <time>2021-06-03T08:32:21Z</time>
      </trkpt>
      <trkpt lat="43.773" lon="7.50185">
        <ele>6</ele>
        <time>2021-06-03T08:32:31Z</time>
      </trkpt>
      <trkpt lat="43.77304" lon="7.50195">
        <ele>6</ele>
        <time>2021-06-03T08:32:42Z</time>
      </trkpt>
      <trkpt lat="43.77309" lon="7.50204">
        <ele>6</ele>
        <time>2021-06-03T08:32:52Z</time>
      </trkpt>
      <trkpt lat="43.77313" lon="7.50213">
        <ele>6</ele>
        <time>2021-06-03T08:33:02Z</time>
      </trkpt>
      <trkpt lat="43.77316" lon="7.50221">
        <ele>6</ele>
        <time>2021-06-03T08:33:11Z</time>
      </trkpt>
      <trkpt lat="43.77317" lon="7.50231">
        <ele>6</ele>
        <time>2021-06-03T08:33:21Z</time>
      </trkpt>
      <trkpt lat="43.7732" lon="7.5024">
        <ele>6</ele>
        <time>2021-06-03T08:33:31Z</time>
      </trkpt>
      <trkpt lat="43.77325" lon="7.50249">
        <ele>6</ele>
        <time>2021-06-03T08:33:41Z</time>
      </trkpt>
      <trkpt lat="43.77327" lon="7.50259">
        <time>2021-06-03T08:33:51Z</time>
      </trkpt>
      <trkpt lat="43.7733" lon="7.50269">
        <time>2021-06-03T08:34:01Z</time>
      </trkpt>
      <trkpt lat="43.77332" lon="7.50279">
        <time>2021-06-03T08:34:11Z</time>
      </trkpt>
      <trkpt lat="43.77334" lon="7.50289">
        <ele>8.6</ele>
        <time>2021-06-03T08:34:21Z</time>
      </trkpt>
      <trkpt lat="43.77335" lon="7.50299">
        <ele>8.2</ele>
        <time>2021-06-03T08:34:31Z</time>
      </trkpt>
      <trkpt lat="43.77337" lon="7.50309">
        <ele>7.9</ele>
        <time>2021-06-03T08:34:41Z</time>
      </trkpt>
      <trkpt lat="43.77339" lon="7.50318">
        <ele>7.6</ele>
        <time>2021-06-03T08:34:51Z</time>
      </trkpt>
      <trkpt lat="43.77342" lon="7.50328">
        <ele>7.2</ele>
        <time>2021-06-03T08:35:01Z</time>
      </trkpt>
      <trkpt lat="43.77345" lon="7.50338">
        <ele>6.8</ele>
        <time>2021-06-03T08:35:11Z</time>
      </trkpt>
      <trkpt lat="43.77346" lon="7.50349">
        <ele>6.4</ele>
        <time>2021-06-03T08:35:21Z</time>
      </trkpt>
      <trkpt lat="43.77348" lon="7.50358">
        <ele>6.1</ele>
        <time>2021-06-03T08:35:31Z</time>
      </trkpt>
      <trkpt lat="43.7735" lon="7.50369">
        <ele>5.7</ele>
        <time>2021-06-03T08:35:41Z</time>
      </trkpt>
      <trkpt lat="43.77349" lon="7.50378">
        <ele>5.4</ele>
        <time>2021-06-03T08:35:51Z</time>
      </trkpt>
      <trkpt lat="43.77351" lon="7.50387">
        <ele>5.1</ele>
        <time>2021-06-03T08:36:01Z</time>
      </trkpt>
      <trkpt lat="43.77352" lon="7.50398">
        <ele>4.7</ele>
        <time>2021-06-03T08:36:11Z</time>
      </trkpt>
      <trkpt lat="43.7735" lon="7.50407">
        <ele>4.3</ele>
        <time>2021-06-03T08:36:21Z</time>
      </trkpt>
      <trkpt lat="43.77348" lon="7.50416">
        <ele>4</ele>
        <time>2021-06-03T08:36:33Z</time>
      </trkpt>
      <trkpt lat="43.77345" lon="7.50425">
        <ele>3.9</ele>
        <time>2021-06-03T08:36:43Z</time>
      </trkpt>
      <trkpt lat="43.77343" lon="7.50433">
        <ele>3.8</ele>
        <time>2021-06-03T08:36:52Z</time>
      </trkpt>
      <trkpt lat="43.77346" lon="7.5044">
        <ele>3.7</ele>
        <time>2021-06-03T08:37:02Z</time>
      </trkpt>
      <trkpt lat="43.77346" lon="7.50433">
        <ele>3.8</ele>
        <time>2021-06-03T08:37:12Z</time>
      </trkpt>
      <trkpt lat="43.77344" lon="7.50423">
        <ele>3.9</ele>
        <time>2021-06-03T08:37:22Z</time>
      </trkpt>
      <trkpt lat="43.77342" lon="7.50411">
        <ele>4.2</ele>
        <time>2021-06-03T08:37:32Z</time>
      </trkpt>
      <trkpt lat="43.77343" lon="7.504">
        <ele>4.6</ele>
        <time>2021-06-03T08:37:42Z</time>
      </trkpt>
      <trkpt lat="43.77346" lon="7.5039">
        <ele>5</ele>
        <time>2021-06-03T08:37:52Z</time>
      </trkpt>
      <trkpt lat="43.7735" lon="7.50381">
        <ele>5.3</ele>
        <time>2021-06-03T08:38:02Z</time>
      </trkpt>
      <trkpt lat="43.77354" lon="7.50374">
        <ele>5.6</ele>
        <time>2021-06-03T08:38:11Z</time>
      </trkpt>
      <trkpt lat="43.77353" lon="7.50363">
        <ele>5.9</ele>
        <time>2021-06-03T08:38:21Z</time>
      </trkpt>
      <trkpt lat="43.77351" lon="7.50352">
        <ele>6.3</ele>
        <time>2021-06-03T08:38:31Z</time>
      </trkpt>
      <trkpt lat="43.7735" lon="7.50341">
        <ele>6.7</ele>
        <time>2021-06-03T08:38:41Z</time>
      </trkpt>
      <trkpt lat="43.77349" lon="7.5033">
        <ele>7.1</ele>
        <time>2021-06-03T08:38:50Z</time>
      </trkpt>
      <trkpt lat="43.77349" lon="7.50319">
        <ele>7.5</ele>
        <time>2021-06-03T08:38:59Z</time>
      </trkpt>
      <trkpt lat="43.77347" lon="7.50308">
        <ele>7.9</ele>
        <time>2021-06-03T08:39:09Z</time>
      </trkpt>
      <trkpt lat="43.77346" lon="7.50298">
        <ele>8.3</ele>
        <time>2021-06-03T08:39:18Z</time>
      </trkpt>
      <trkpt lat="43.77345" lon="7.50291">
        <ele>8.5</ele>
        <time>2021-06-03T08:39:29Z</time>
      </trkpt>
      <trkpt lat="43.77345" lon="7.5028">
        <ele>8.9</ele>
        <time>2021-06-03T08:39:39Z</time>
      </trkpt>
      <trkpt lat="43.77342" lon="7.50271">
        <ele>9.2</ele>
        <time>2021-06-03T08:39:50Z</time>
      </trkpt>
      <trkpt lat="43.77342" lon="7.50266">
        <ele>9.4</ele>
        <time>2021-06-03T08:40:00Z</time>
      </trkpt>
      <trkpt lat="43.77342" lon="7.50255">
        <ele>9.8</ele>
        <time>2021-06-03T08:40:10Z</time>
      </trkpt>
      <trkpt lat="43.77344" lon="7.50249">
        <ele>10</ele>
        <time>2021-06-03T08:40:19Z</time>
      </trkpt>
      <trkpt lat="43.77347" lon="7.5024">
        <ele>9.7</ele>
        <time>2021-06-03T08:40:29Z</time>
      </trkpt>
      <trkpt lat="43.77355" lon="7.50237">
        <ele>9.6</ele>
        <time>2021-06-03T08:40:40Z</time>
      </trkpt>
      <trkpt lat="43.77356" lon="7.50235">
        <ele>9.6</ele>
        <time>2021-06-03T08:40:49Z</time>
      </trkpt>
    </trkseg>
  </trk>
</gpx>